Time;durP1;ratioP1;P1;durP2;ratioP2;P2;SDS_P1;SDS_P2;PMS_P1;PMS_P2;Temp;Humidity;BMP_temperature;BMP_pressure;BME280_temperature;BME280_humidity;BME280_pressure;Samples;Min_cycle;Max_cycle;Signal;HPM_P1;HPM_P2
2023/01/25 00:00:14;;;;;;;17.77;7.43;;;;;;;;;;5116157;27;20035;-74
2023/01/25 00:02:39;;;;;;;12.73;7.23;;;;;;;;;;5099385;27;20058;-74
2023/01/25 00:05:06;;;;;;;15.10;7.17;;;;;;;;;;5116032;27;20062;-74
2023/01/25 00:07:31;;;;;;;13.30;7.57;;;;;;;;;;5082486;27;20042;-71
2023/01/25 00:09:57;;;;;;;14.63;8.00;;;;;;;;;;5099401;27;20039;-74
2023/01/25 00:12:24;;;;;;;14.53;7.37;;;;;;;;;;5082543;27;20461;-72
2023/01/25 00:14:50;;;;;;;17.73;7.80;;;;;;;;;;5116027;27;20035;-74
2023/01/25 00:17:16;;;;;;;13.33;7.33;;;;;;;;;;5099063;27;20050;-74
2023/01/25 00:19:42;;;;;;;15.40;7.60;;;;;;;;;;5099120;27;20035;-73
2023/01/25 00:22:07;;;;;;;18.43;7.97;;;;;;;;;;5115736;27;20506;-74
2023/01/25 00:24:33;;;;;;;15.33;7.80;;;;;;;;;;5098873;27;20472;-70
2023/01/25 00:26:59;;;;;;;18.23;8.37;;;;;;;;;;5099136;27;20035;-74
2023/01/25 00:29:24;;;;;;;16.40;7.70;;;;;;;;;;5098770;27;20384;-73
2023/01/25 00:31:53;;;;;;;21.37;8.47;;;;;;;;;;5098790;27;20027;-73
2023/01/25 00:34:24;;;;;;;18.33;8.40;;;;;;;;;;5095064;28;20353;-73
2023/01/25 00:37:00;;;;;;;16.57;7.53;;;;;;;;;;5078158;28;20152;-73
2023/01/25 00:39:26;;;;;;;15.23;7.33;;;;;;;;;;5094614;28;20536;-73
2023/01/25 00:41:52;;;;;;;14.67;7.27;;;;;;;;;;5095089;28;20038;-73
2023/01/25 00:44:18;;;;;;;19.37;7.20;;;;;;;;;;5061411;28;20042;-73
2023/01/25 00:46:44;;;;;;;18.73;7.50;;;;;;;;;;5095339;28;20427;-72
2023/01/25 00:49:19;;;;;;;15.67;7.80;;;;;;;;;;5094623;28;20078;-73
2023/01/25 00:51:44;;;;;;;15.23;7.60;;;;;;;;;;5094937;28;20406;-74
2023/01/25 00:54:10;;;;;;;14.13;6.70;;;;;;;;;;5094919;28;20073;-73
2023/01/25 00:56:36;;;;;;;14.50;7.50;;;;;;;;;;5077943;28;20035;-72
2023/01/25 00:59:01;;;;;;;13.83;6.60;;;;;;;;;;5078355;28;20073;-73
2023/01/25 01:01:27;;;;;;;12.83;7.43;;;;;;;;;;5094731;28;20469;-73
2023/01/25 01:03:55;;;;;;;11.87;6.80;;;;;;;;;;5077857;28;20074;-74
2023/01/25 01:06:20;;;;;;;12.77;6.57;;;;;;;;;;5094690;28;20079;-73
2023/01/25 01:08:47;;;;;;;13.23;7.27;;;;;;;;;;5095571;28;20146;-74
2023/01/25 01:11:13;;;;;;;11.37;6.60;;;;;;;;;;5078438;28;20070;-73
2023/01/25 01:13:39;;;;;;;13.87;7.53;;;;;;;;;;5078383;28;20035;-73
2023/01/25 01:16:10;;;;;;;12.77;6.83;;;;;;;;;;5095657;28;20039;-73
2023/01/25 01:18:37;;;;;;;13.40;7.63;;;;;;;;;;5078340;28;20062;-70
2023/01/25 01:21:04;;;;;;;16.07;7.43;;;;;;;;;;5095351;28;20039;-74
2023/01/25 01:23:30;;;;;;;14.07;7.07;;;;;;;;;;5078245;28;20040;-74
2023/01/25 01:25:58;;;;;;;11.37;6.50;;;;;;;;;;5094832;28;21147;-74
2023/01/25 01:28:24;;;;;;;15.63;7.13;;;;;;;;;;5112212;28;20427;-74
2023/01/25 01:30:52;;;;;;;13.53;7.33;;;;;;;;;;5111686;28;20466;-72
2023/01/25 01:33:17;;;;;;;11.63;7.20;;;;;;;;;;5094425;28;20126;-73
2023/01/25 01:35:45;;;;;;;13.43;7.20;;;;;;;;;;5060716;28;20123;-73
2023/01/25 01:38:11;;;;;;;14.43;7.30;;;;;;;;;;5094454;28;20032;-73
2023/01/25 01:40:38;;;;;;;16.43;6.97;;;;;;;;;;5077796;28;20478;-72
2023/01/25 01:43:13;;;;;;;12.73;6.60;;;;;;;;;;5111919;28;20378;-73
2023/01/25 01:45:47;;;;;;;12.93;7.53;;;;;;;;;;5094231;28;20104;-74
2023/01/25 01:48:18;;;;;;;13.13;6.53;;;;;;;;;;5094661;28;20080;-74
2023/01/25 01:50:44;;;;;;;10.43;6.30;;;;;;;;;;5081678;28;20494;-73
2023/01/25 01:53:10;;;;;;;15.17;7.07;;;;;;;;;;5081630;28;20502;-72
2023/01/25 01:55:37;;;;;;;14.20;7.00;;;;;;;;;;5098762;28;20043;-75
2023/01/25 01:58:03;;;;;;;15.03;7.47;;;;;;;;;;5098219;28;20027;-73
2023/01/25 02:00:31;;;;;;;14.70;7.50;;;;;;;;;;5064528;28;20035;-74
2023/01/25 02:03:00;;;;;;;16.33;7.63;;;;;;;;;;5098232;28;20038;-74
2023/01/25 02:05:39;;;;;;;14.57;7.67;;;;;;;;;;5081075;28;20055;-73
2023/01/25 02:08:08;;;;;;;14.23;7.40;;;;;;;;;;5098546;28;20043;-73
2023/01/25 02:10:34;;;;;;;17.30;7.70;;;;;;;;;;5098212;28;20027;-74
2023/01/25 02:13:00;;;;;;;16.07;8.03;;;;;;;;;;5098050;28;20042;-73
2023/01/25 02:15:27;;;;;;;16.07;7.53;;;;;;;;;;5080828;28;20122;-73
2023/01/25 02:17:54;;;;;;;19.83;8.13;;;;;;;;;;5114710;28;20032;-73
2023/01/25 02:20:22;;;;;;;18.63;8.23;;;;;;;;;;5097949;28;20130;-74
2023/01/25 02:23:06;;;;;;;21.70;8.33;;;;;;;;;;5064170;28;20477;-73
2023/01/25 02:25:32;;;;;;;18.13;9.60;;;;;;;;;;5064215;28;20036;-74
2023/01/25 02:28:05;;;;;;;14.77;8.23;;;;;;;;;;5098061;28;20567;-73
2023/01/25 02:30:32;;;;;;;15.30;7.40;;;;;;;;;;5097127;28;20048;-72
2023/01/25 02:32:58;;;;;;;17.07;8.30;;;;;;;;;;5080818;28;20074;-73
2023/01/25 02:35:35;;;;;;;18.27;7.97;;;;;;;;;;5097455;28;20067;-73
2023/01/25 02:38:01;;;;;;;18.50;8.77;;;;;;;;;;5080573;28;20497;-73
2023/01/25 02:40:29;;;;;;;17.27;8.00;;;;;;;;;;5098169;28;20046;-73
2023/01/25 02:42:55;;;;;;;16.83;8.67;;;;;;;;;;5097486;28;20035;-74
2023/01/25 02:45:22;;;;;;;17.57;8.93;;;;;;;;;;5097294;28;20039;-76
2023/01/25 02:47:48;;;;;;;20.47;9.30;;;;;;;;;;5097413;28;20428;-74
2023/01/25 02:50:14;;;;;;;16.27;9.13;;;;;;;;;;5063781;28;20067;-73
2023/01/25 02:52:40;;;;;;;18.83;8.93;;;;;;;;;;5114635;28;20096;-73
2023/01/25 02:55:06;;;;;;;17.10;8.73;;;;;;;;;;5097384;28;20035;-76
2023/01/25 02:57:32;;;;;;;19.17;9.27;;;;;;;;;;5097271;28;20042;-74
2023/01/25 02:59:58;;;;;;;18.67;8.87;;;;;;;;;;5096065;28;20035;-77
2023/01/25 03:02:24;;;;;;;16.90;8.77;;;;;;;;;;5096831;28;20143;-77
2023/01/25 03:04:50;;;;;;;17.80;9.43;;;;;;;;;;5096980;28;20130;-77
2023/01/25 03:07:16;;;;;;;26.67;9.73;;;;;;;;;;5097058;28;20029;-75
2023/01/25 03:09:43;;;;;;;19.70;9.40;;;;;;;;;;5080298;28;20039;-72
2023/01/25 03:12:09;;;;;;;25.67;10.37;;;;;;;;;;5097294;28;20035;-70
2023/01/25 03:14:37;;;;;;;25.20;10.40;;;;;;;;;;5080244;28;20477;-69
2023/01/25 03:17:03;;;;;;;26.73;9.23;;;;;;;;;;5063103;28;20035;-70
2023/01/25 03:19:29;;;;;;;22.50;8.70;;;;;;;;;;5096833;28;20047;-70
2023/01/25 03:21:55;;;;;;;19.80;8.97;;;;;;;;;;5063142;28;20381;-71
2023/01/25 03:24:22;;;;;;;17.27;9.70;;;;;;;;;;5079596;28;20035;-70
2023/01/25 03:29:40;;;;;;;20.17;9.50;;;;;;;;;;5079812;28;20038;-71
2023/01/25 03:32:10;;;;;;;23.02;9.32;;;;;;;;;;5097194;28;20027;-70
2023/01/25 03:34:43;;;;;;;22.43;9.97;;;;;;;;;;5096632;28;20394;-70
2023/01/25 03:37:11;;;;;;;21.10;9.27;;;;;;;;;;5079775;28;20031;-70
2023/01/25 03:39:39;;;;;;;19.53;9.60;;;;;;;;;;5096180;28;20028;-70
2023/01/25 03:42:08;;;;;;;21.03;9.57;;;;;;;;;;5095786;28;20051;-71
2023/01/25 03:44:34;;;;;;;21.10;10.10;;;;;;;;;;5114184;28;20046;-72
2023/01/25 03:47:00;;;;;;;20.57;9.40;;;;;;;;;;5079297;28;20134;-72
2023/01/25 03:49:27;;;;;;;15.17;9.20;;;;;;;;;;5095836;28;20059;-72
2023/01/25 03:51:52;;;;;;;20.13;9.40;;;;;;;;;;5062199;28;20054;-69
2023/01/25 03:54:24;;;;;;;21.50;9.17;;;;;;;;;;5079205;28;20138;-73
2023/01/25 03:56:50;;;;;;;17.13;8.77;;;;;;;;;;5117632;28;20067;-71
2023/01/25 03:59:22;;;;;;;17.50;8.63;;;;;;;;;;5094985;28;20039;-70
2023/01/25 04:01:48;;;;;;;20.53;9.10;;;;;;;;;;5078765;28;20023;-72
2023/01/25 04:04:14;;;;;;;17.87;8.70;;;;;;;;;;5112552;28;20104;-71
2023/01/25 04:06:42;;;;;;;18.50;9.07;;;;;;;;;;5066776;27;20433;-70
2023/01/25 04:09:08;;;;;;;23.93;9.47;;;;;;;;;;5097221;27;20019;-72
2023/01/25 04:11:39;;;;;;;18.20;9.02;;;;;;;;;;5080038;27;20023;-71
2023/01/25 04:14:04;;;;;;;22.67;9.87;;;;;;;;;;5131771;27;20103;-72
2023/01/25 04:16:38;;;;;;;21.00;10.00;;;;;;;;;;5112208;27;20050;-70
2023/01/25 04:19:22;;;;;;;18.03;9.10;;;;;;;;;;5113994;27;20118;-68
2023/01/25 04:21:48;;;;;;;20.80;9.07;;;;;;;;;;5097611;27;20027;-73
2023/01/25 04:24:14;;;;;;;20.27;9.53;;;;;;;;;;5113713;27;20110;-70
2023/01/25 04:26:42;;;;;;;20.90;10.27;;;;;;;;;;5096276;27;20207;-70
2023/01/25 04:29:08;;;;;;;21.13;9.67;;;;;;;;;;5094329;27;20526;-73
2023/01/25 04:31:34;;;;;;;23.23;10.53;;;;;;;;;;5096900;27;20035;-72
2023/01/25 04:34:00;;;;;;;24.23;9.50;;;;;;;;;;5096224;27;20709;-72
2023/01/25 04:36:26;;;;;;;21.10;10.80;;;;;;;;;;5095981;27;20031;-73
2023/01/25 04:38:53;;;;;;;19.13;10.03;;;;;;;;;;5108952;27;20031;-71
2023/01/25 04:41:18;;;;;;;22.00;10.10;;;;;;;;;;5080313;27;20087;-71
2023/01/25 04:43:44;;;;;;;22.90;10.53;;;;;;;;;;5080581;27;20027;-71
2023/01/25 04:46:10;;;;;;;20.83;9.43;;;;;;;;;;5132536;27;20089;-73
2023/01/25 04:48:35;;;;;;;21.37;10.33;;;;;;;;;;5090669;27;20030;-71
2023/01/25 04:51:04;;;;;;;24.27;10.90;;;;;;;;;;5112328;27;20129;-70
2023/01/25 04:53:31;;;;;;;21.93;9.13;;;;;;;;;;5094336;27;20067;-69
2023/01/25 04:55:59;;;;;;;19.40;9.17;;;;;;;;;;5113666;27;20053;-70
2023/01/25 04:58:26;;;;;;;20.57;9.33;;;;;;;;;;5131095;27;20026;-70
2023/01/25 05:00:52;;;;;;;18.07;9.67;;;;;;;;;;5077727;27;20066;-69
2023/01/25 05:03:18;;;;;;;20.17;9.70;;;;;;;;;;5096221;27;20069;-70
2023/01/25 05:05:47;;;;;;;20.73;8.87;;;;;;;;;;5096532;27;20054;-69
2023/01/25 05:08:16;;;;;;;24.50;9.43;;;;;;;;;;5078936;27;20369;-68
2023/01/25 05:10:42;;;;;;;15.10;7.87;;;;;;;;;;5101977;27;20035;-71
2023/01/25 05:13:27;;;;;;;14.73;7.57;;;;;;;;;;5112951;27;20330;-70
2023/01/25 05:16:13;;;;;;;15.97;7.23;;;;;;;;;;5087459;27;20091;-72
2023/01/25 05:18:39;;;;;;;22.40;8.03;;;;;;;;;;5088155;27;20281;-71
2023/01/25 05:21:04;;;;;;;12.20;6.13;;;;;;;;;;5079196;28;20183;-71
2023/01/25 05:23:31;;;;;;;12.83;6.83;;;;;;;;;;5112428;28;20057;-70
2023/01/25 05:28:42;;;;;;;9.67;5.93;;;;;;;;;;5103236;28;20426;-71
2023/01/25 05:31:27;;;;;;;10.10;6.20;;;;;;;;;;5095704;28;20038;-71
2023/01/25 05:33:53;;;;;;;9.50;5.83;;;;;;;;;;5096709;28;20030;-71
2023/01/25 05:36:19;;;;;;;12.53;6.70;;;;;;;;;;5078836;28;20024;-72
2023/01/25 05:38:45;;;;;;;13.73;7.37;;;;;;;;;;5113319;28;20362;-71
2023/01/25 05:41:12;;;;;;;10.63;6.30;;;;;;;;;;5096721;28;20038;-71
2023/01/25 05:43:38;;;;;;;10.63;6.67;;;;;;;;;;5095309;28;20032;-73
2023/01/25 05:46:06;;;;;;;13.67;7.07;;;;;;;;;;5096291;28;20035;-72
2023/01/25 05:48:32;;;;;;;15.67;6.43;;;;;;;;;;5096453;28;20035;-71
2023/01/25 05:50:58;;;;;;;14.67;6.73;;;;;;;;;;5088106;28;20369;-71
2023/01/25 05:53:25;;;;;;;15.30;7.73;;;;;;;;;;5079196;28;20092;-71
2023/01/25 05:55:51;;;;;;;16.80;7.73;;;;;;;;;;5094185;28;20027;-72
2023/01/25 05:58:17;;;;;;;12.70;7.30;;;;;;;;;;5096122;28;20033;-71
2023/01/25 06:00:42;;;;;;;15.93;7.27;;;;;;;;;;5078961;28;20158;-71
2023/01/25 06:03:13;;;;;;;13.50;7.47;;;;;;;;;;5094244;28;20088;-71
2023/01/25 06:05:39;;;;;;;13.73;6.60;;;;;;;;;;5096379;28;20071;-71
2023/01/25 06:08:05;;;;;;;12.63;7.10;;;;;;;;;;5096189;28;20088;-71
2023/01/25 06:10:42;;;;;;;11.80;6.93;;;;;;;;;;5111424;28;20030;-71
2023/01/25 06:13:07;;;;;;;10.13;6.37;;;;;;;;;;5130901;28;20046;-71
2023/01/25 06:15:33;;;;;;;10.57;6.73;;;;;;;;;;5095443;28;20548;-72
2023/01/25 06:18:23;;;;;;;12.90;6.73;;;;;;;;;;5113336;28;20039;-71
2023/01/25 06:21:07;;;;;;;12.10;6.93;;;;;;;;;;5113795;28;20377;-72
2023/01/25 06:23:35;;;;;;;11.30;6.60;;;;;;;;;;5096594;28;20032;-73
2023/01/25 06:26:02;;;;;;;12.37;6.97;;;;;;;;;;5097430;28;20053;-72
2023/01/25 06:28:32;;;;;;;14.57;7.03;;;;;;;;;;5097755;28;20073;-72
2023/01/25 06:31:14;;;;;;;14.77;6.80;;;;;;;;;;5114462;28;20457;-71
2023/01/25 06:33:41;;;;;;;9.30;6.17;;;;;;;;;;5097852;28;20499;-71
2023/01/25 06:36:10;;;;;;;11.87;6.07;;;;;;;;;;5100717;27;20059;-72
2023/01/25 06:38:36;;;;;;;9.33;6.27;;;;;;;;;;5118148;27;20035;-72
2023/01/25 06:41:02;;;;;;;11.63;6.23;;;;;;;;;;5118160;27;20354;-71
2023/01/25 06:43:29;;;;;;;11.70;6.43;;;;;;;;;;5101089;27;20035;-71
2023/01/25 06:46:02;;;;;;;8.47;5.70;;;;;;;;;;5100919;27;20050;-70
2023/01/25 06:48:28;;;;;;;9.57;6.00;;;;;;;;;;5118054;27;20372;-71
2023/01/25 06:51:01;;;;;;;11.27;6.10;;;;;;;;;;5118159;27;20096;-71
2023/01/25 06:53:27;;;;;;;9.27;5.60;;;;;;;;;;5117785;27;20023;-70
2023/01/25 06:56:00;;;;;;;10.43;5.73;;;;;;;;;;5135249;27;20471;-72
2023/01/25 06:58:26;;;;;;;9.33;6.13;;;;;;;;;;5100783;27;20054;-71
2023/01/25 07:00:52;;;;;;;10.07;6.10;;;;;;;;;;5100704;27;20035;-71
2023/01/25 07:03:18;;;;;;;10.70;6.57;;;;;;;;;;5100842;27;20034;-68
2023/01/25 07:05:43;;;;;;;11.13;6.30;;;;;;;;;;5100730;27;20095;-72
2023/01/25 07:08:09;;;;;;;11.00;6.27;;;;;;;;;;5100630;27;20031;-73
2023/01/25 07:10:35;;;;;;;9.90;5.90;;;;;;;;;;5117692;27;20118;-72
2023/01/25 07:13:00;;;;;;;8.77;5.63;;;;;;;;;;5100537;27;20084;-71
2023/01/25 07:15:26;;;;;;;9.23;5.70;;;;;;;;;;5100536;27;20039;-71
2023/01/25 07:17:52;;;;;;;8.53;6.10;;;;;;;;;;5100454;27;20465;-71
2023/01/25 07:20:18;;;;;;;8.73;5.73;;;;;;;;;;5134957;27;20060;-72
2023/01/25 07:22:44;;;;;;;8.80;5.10;;;;;;;;;;5134957;27;20031;-72
2023/01/25 07:25:09;;;;;;;10.17;6.60;;;;;;;;;;5100221;27;20100;-72
2023/01/25 07:27:35;;;;;;;8.97;5.70;;;;;;;;;;5117216;27;20088;-72
2023/01/25 07:30:02;;;;;;;9.83;6.50;;;;;;;;;;5100128;27;20046;-71
2023/01/25 07:32:29;;;;;;;8.27;5.80;;;;;;;;;;5100526;27;20095;-72
2023/01/25 07:34:55;;;;;;;10.30;6.17;;;;;;;;;;5117070;27;20043;-71
2023/01/25 07:37:21;;;;;;;9.43;6.27;;;;;;;;;;5100190;27;20461;-71
2023/01/25 07:39:49;;;;;;;8.93;4.83;;;;;;;;;;5100401;27;20124;-72
2023/01/25 07:42:14;;;;;;;7.17;4.90;;;;;;;;;;5100187;27;20035;-73
2023/01/25 07:44:49;;;;;;;6.10;4.80;;;;;;;;;;5099970;27;20035;-72
2023/01/25 07:47:15;;;;;;;6.63;4.90;;;;;;;;;;5116321;27;20134;-71
2023/01/25 07:49:41;;;;;;;7.03;4.90;;;;;;;;;;5099765;27;20134;-72
2023/01/25 07:52:06;;;;;;;8.40;5.30;;;;;;;;;;5100036;27;20031;-72
2023/01/25 07:54:32;;;;;;;9.20;5.53;;;;;;;;;;5116740;27;20054;-72
2023/01/25 07:56:58;;;;;;;11.47;5.70;;;;;;;;;;5099758;27;20479;-72
2023/01/25 07:59:23;;;;;;;8.73;5.47;;;;;;;;;;5099560;27;20038;-72
2023/01/25 08:01:49;;;;;;;8.13;4.83;;;;;;;;;;5099967;27;20125;-73
2023/01/25 08:04:15;;;;;;;9.10;5.40;;;;;;;;;;5133208;27;20072;-71
2023/01/25 08:06:44;;;;;;;11.90;5.70;;;;;;;;;;5116810;27;20035;-72
2023/01/25 08:09:11;;;;;;;7.33;5.03;;;;;;;;;;5099483;27;20035;-72
2023/01/25 08:11:37;;;;;;;9.17;5.67;;;;;;;;;;5099548;27;20461;-72
2023/01/25 08:14:03;;;;;;;10.00;5.50;;;;;;;;;;5099266;27;20031;-71
2023/01/25 08:16:30;;;;;;;9.33;6.13;;;;;;;;;;5099396;27;20524;-71
2023/01/25 08:18:56;;;;;;;8.17;5.93;;;;;;;;;;5116402;27;20038;-71
2023/01/25 08:21:28;;;;;;;9.27;5.90;;;;;;;;;;5099471;27;20088;-69
2023/01/25 08:23:58;;;;;;;9.80;5.40;;;;;;;;;;5099129;27;20142;-71
2023/01/25 08:26:24;;;;;;;6.87;4.77;;;;;;;;;;5116380;27;20051;-71
2023/01/25 08:28:52;;;;;;;10.13;5.30;;;;;;;;;;5099314;27;20038;-72
2023/01/25 08:31:22;;;;;;;8.60;5.20;;;;;;;;;;5133497;27;20031;-72
2023/01/25 08:33:48;;;;;;;7.75;4.05;;;;;;;;;;5116171;27;20122;-71
2023/01/25 08:36:15;;;;;;;5.43;4.37;;;;;;;;;;5099013;27;20490;-72
2023/01/25 08:38:41;;;;;;;6.23;4.60;;;;;;;;;;5098870;27;20095;-72
2023/01/25 08:41:07;;;;;;;6.23;4.80;;;;;;;;;;5098827;27;20043;-71
2023/01/25 08:43:33;;;;;;;5.67;4.33;;;;;;;;;;5116345;27;20050;-72
2023/01/25 08:45:58;;;;;;;5.90;4.30;;;;;;;;;;5115534;27;20394;-71
2023/01/25 08:48:24;;;;;;;6.93;4.30;;;;;;;;;;5098957;27;20039;-68
2023/01/25 08:50:49;;;;;;;6.60;4.23;;;;;;;;;;5098907;27;20031;-71
2023/01/25 08:53:15;;;;;;;6.63;4.23;;;;;;;;;;5115427;27;20043;-72
2023/01/25 08:55:41;;;;;;;8.47;4.43;;;;;;;;;;5098863;27;20135;-72
2023/01/25 08:58:09;;;;;;;6.53;4.50;;;;;;;;;;5114581;27;20043;-72
2023/01/25 09:00:39;;;;;;;6.90;4.33;;;;;;;;;;5115482;27;20031;-71
2023/01/25 09:03:05;;;;;;;6.90;4.37;;;;;;;;;;5132660;27;20095;-72
2023/01/25 09:05:32;;;;;;;7.73;4.60;;;;;;;;;;5064852;27;20071;-72
2023/01/25 09:07:58;;;;;;;7.23;4.20;;;;;;;;;;5098450;27;20079;-71
2023/01/25 09:10:24;;;;;;;8.53;5.50;;;;;;;;;;5098666;27;20130;-72
2023/01/25 09:12:49;;;;;;;8.23;4.87;;;;;;;;;;5098288;27;20042;-72
2023/01/25 09:15:15;;;;;;;8.83;5.07;;;;;;;;;;5098405;27;20035;-70
2023/01/25 09:17:40;;;;;;;7.37;4.63;;;;;;;;;;5115309;27;20031;-72
2023/01/25 09:20:06;;;;;;;8.73;5.47;;;;;;;;;;5098278;27;20037;-72
2023/01/25 09:22:32;;;;;;;12.67;5.73;;;;;;;;;;5115081;28;20035;-71
2023/01/25 09:24:58;;;;;;;16.80;6.00;;;;;;;;;;5098122;28;20057;-71
2023/01/25 09:27:24;;;;;;;9.50;5.87;;;;;;;;;;5098508;28;20067;-72
2023/01/25 09:29:49;;;;;;;14.67;5.83;;;;;;;;;;5115005;27;20495;-71
2023/01/25 09:32:15;;;;;;;12.77;7.23;;;;;;;;;;5097795;28;20038;-71
2023/01/25 09:34:55;;;;;;;8.13;5.60;;;;;;;;;;5098252;28;20060;-70
2023/01/25 09:37:21;;;;;;;14.27;6.27;;;;;;;;;;5098393;28;20027;-71
2023/01/25 09:39:47;;;;;;;10.83;5.57;;;;;;;;;;5097804;28;20038;-72
2023/01/25 09:42:41;;;;;;;13.17;6.17;;;;;;;;;;5115034;28;20038;-71
2023/01/25 09:45:13;;;;;;;11.27;6.23;;;;;;;;;;5088977;28;20039;-71
2023/01/25 09:47:42;;;;;;;13.23;7.03;;;;;;;;;;5098080;28;20038;-72
2023/01/25 09:50:08;;;;;;;13.83;6.33;;;;;;;;;;5097953;28;20054;-72
2023/01/25 09:52:43;;;;;;;11.57;6.67;;;;;;;;;;5114858;28;20031;-71
2023/01/25 09:55:13;;;;;;;10.20;6.30;;;;;;;;;;5097786;28;20027;-72
2023/01/25 09:57:40;;;;;;;12.32;6.13;;;;;;;;;;5097889;28;20130;-71
2023/01/25 10:00:16;;;;;;;9.33;6.10;;;;;;;;;;5097865;28;20057;-73
2023/01/25 10:02:46;;;;;;;10.33;6.30;;;;;;;;;;5097651;28;20491;-71
2023/01/25 10:05:22;;;;;;;10.97;5.70;;;;;;;;;;5097601;28;20138;-71
2023/01/25 10:08:02;;;;;;;11.47;5.70;;;;;;;;;;5131865;28;20464;-71
2023/01/25 10:10:28;;;;;;;12.47;6.37;;;;;;;;;;5083402;27;20487;-72
2023/01/25 10:12:53;;;;;;;11.37;6.43;;;;;;;;;;5101900;27;20027;-72
2023/01/25 10:15:21;;;;;;;16.90;6.67;;;;;;;;;;5101680;27;20035;-71
2023/01/25 10:18:06;;;;;;;18.13;6.63;;;;;;;;;;5118596;27;20035;-73
2023/01/25 10:20:44;;;;;;;12.30;6.17;;;;;;;;;;5100209;27;20475;-70
2023/01/25 10:23:22;;;;;;;14.77;7.30;;;;;;;;;;5119778;28;20030;-73
2023/01/25 10:25:48;;;;;;;13.77;7.27;;;;;;;;;;5097494;27;20129;-71
2023/01/25 10:28:25;;;;;;;16.57;7.53;;;;;;;;;;5100357;27;20118;-71
2023/01/25 10:30:57;;;;;;;15.30;6.93;;;;;;;;;;5116898;27;20118;-71
2023/01/25 10:33:24;;;;;;;17.20;7.03;;;;;;;;;;5099769;27;20023;-70
2023/01/25 10:35:49;;;;;;;15.20;7.20;;;;;;;;;;5117347;27;20091;-70
2023/01/25 10:38:15;;;;;;;14.07;7.17;;;;;;;;;;5099963;27;20039;-71
2023/01/25 10:41:01;;;;;;;12.73;7.03;;;;;;;;;;5116948;27;20110;-70
2023/01/25 10:43:26;;;;;;;12.60;7.40;;;;;;;;;;5131792;27;20035;-70
2023/01/25 10:45:52;;;;;;;11.60;6.70;;;;;;;;;;5099716;27;20103;-72
2023/01/25 10:48:23;;;;;;;14.03;7.43;;;;;;;;;;5081710;27;20028;-71
2023/01/25 10:50:48;;;;;;;;;;;;;;;;;;5099622;27;20347;-71
2023/01/25 10:53:43;;;;;;;20.60;7.60;;;;;;;;;;5117572;27;20365;-71
2023/01/25 10:56:22;;;;;;;17.00;7.33;;;;;;;;;;5100424;27;20035;-72
2023/01/25 10:58:49;;;;;;;13.47;6.50;;;;;;;;;;5100135;27;20038;-70
2023/01/25 11:01:24;;;;;;;14.73;6.57;;;;;;;;;;5099830;27;20031;-72
2023/01/25 11:03:50;;;;;;;13.20;7.77;;;;;;;;;;5116969;27;20031;-71
2023/01/25 11:06:27;;;;;;;11.20;5.80;;;;;;;;;;5116916;27;20054;-71
2023/01/25 11:08:52;;;;;;;14.17;6.43;;;;;;;;;;5117267;27;20415;-72
2023/01/25 11:11:33;;;;;;;11.87;6.73;;;;;;;;;;5100269;27;20043;-72
2023/01/25 11:13:59;;;;;;;16.20;6.47;;;;;;;;;;5117574;27;20055;-70
2023/01/25 11:16:30;;;;;;;13.87;6.03;;;;;;;;;;5100859;27;20070;-71
2023/01/25 11:18:56;;;;;;;;;;;;;;;;;;5101010;27;20030;-70
2023/01/25 11:21:24;;;;;;;11.17;6.00;;;;;;;;;;5116305;27;20350;-72
2023/01/25 11:24:04;;;;;;;12.83;6.73;;;;;;;;;;5117270;27;20418;-72
2023/01/25 11:26:30;;;;;;;12.00;5.97;;;;;;;;;;5117420;27;20067;-68
2023/01/25 11:29:16;;;;;;;15.00;6.53;;;;;;;;;;5100542;27;20111;-70
2023/01/25 11:31:45;;;;;;;15.90;6.40;;;;;;;;;;5116832;27;20034;-71
2023/01/25 11:34:18;;;;;;;13.63;6.87;;;;;;;;;;5100129;27;20035;-73
2023/01/25 11:36:56;;;;;;;12.77;6.60;;;;;;;;;;5116957;27;20023;-71
2023/01/25 11:39:34;;;;;;;15.17;6.50;;;;;;;;;;5116874;27;20046;-71
2023/01/25 11:42:05;;;;;;;13.13;5.80;;;;;;;;;;5117005;27;20039;-72
2023/01/25 11:44:40;;;;;;;10.07;5.77;;;;;;;;;;5099863;27;20031;-70
2023/01/25 11:47:15;;;;;;;12.27;6.47;;;;;;;;;;5116559;27;20593;-72
2023/01/25 11:49:47;;;;;;;8.70;5.37;;;;;;;;;;5099689;27;20438;-72
2023/01/25 11:52:17;;;;;;;11.47;6.23;;;;;;;;;;5099416;27;20038;-71
2023/01/25 11:55:03;;;;;;;10.43;6.03;;;;;;;;;;5099730;27;20039;-71
2023/01/25 11:57:44;;;;;;;12.57;5.90;;;;;;;;;;5089053;27;20049;-70
2023/01/25 12:00:26;;;;;;;13.18;6.93;;;;;;;;;;5099505;27;20061;-71
2023/01/25 12:03:04;;;;;;;12.90;6.53;;;;;;;;;;5116540;27;20103;-71
2023/01/25 12:05:43;;;;;;;11.00;6.70;;;;;;;;;;5130320;27;20059;-72
2023/01/25 12:08:09;;;;;;;12.83;6.57;;;;;;;;;;5095933;28;20070;-71
2023/01/25 12:10:34;;;;;;;15.87;6.50;;;;;;;;;;5095812;28;20478;-70
2023/01/25 12:13:12;;;;;;;10.37;5.90;;;;;;;;;;5096318;28;20142;-71
2023/01/25 12:15:46;;;;;;;13.07;6.53;;;;;;;;;;5130331;27;20034;-71
2023/01/25 12:18:30;;;;;;;14.40;6.83;;;;;;;;;;5112933;28;20040;-71
2023/01/25 12:21:02;;;;;;;11.13;5.93;;;;;;;;;;5096118;28;20046;-71
2023/01/25 12:23:34;;;;;;;13.67;7.03;;;;;;;;;;5130438;27;20122;-71
2023/01/25 12:26:06;;;;;;;11.33;6.97;;;;;;;;;;5113256;28;20147;-70
2023/01/25 12:28:37;;;;;;;14.43;6.90;;;;;;;;;;5095461;28;20039;-70
2023/01/25 12:31:09;;;;;;;13.17;7.33;;;;;;;;;;5093699;28;20074;-68
2023/01/25 12:33:44;;;;;;;13.43;7.27;;;;;;;;;;5107697;28;20027;-70
2023/01/25 12:36:27;;;;;;;14.43;6.90;;;;;;;;;;5076880;28;20040;-70
2023/01/25 12:39:02;;;;;;;14.93;7.50;;;;;;;;;;5081607;28;20371;-70
2023/01/25 12:41:39;;;;;;;15.37;6.17;;;;;;;;;;5080190;28;20119;-73
2023/01/25 12:44:20;;;;;;;11.50;5.73;;;;;;;;;;5100038;28;20097;-70
2023/01/25 12:46:50;;;;;;;17.42;6.97;;;;;;;;;;5099262;28;20458;-71
2023/01/25 12:49:28;;;;;;;14.47;6.93;;;;;;;;;;5100752;28;20414;-71
2023/01/25 12:51:55;;;;;;;13.70;6.60;;;;;;;;;;5096330;28;20131;-70
2023/01/25 12:54:29;;;;;;;11.93;5.77;;;;;;;;;;5104718;28;20031;-68
2023/01/25 12:57:02;;;;;;;9.60;5.90;;;;;;;;;;5096408;28;20035;-70
2023/01/25 12:59:48;;;;;;;13.97;6.50;;;;;;;;;;5096573;28;20045;-67
2023/01/25 13:02:50;;;;;;;10.60;6.07;;;;;;;;;;5080599;28;20442;-69
2023/01/25 13:05:16;;;;;;;12.63;6.60;;;;;;;;;;5010185;28;20485;-70
2023/01/25 13:07:46;;;;;;;12.90;6.70;;;;;;;;;;5076768;28;20131;-68
2023/01/25 13:10:29;;;;;;;13.18;6.35;;;;;;;;;;5087974;28;20036;-71
2023/01/25 13:12:57;;;;;;;10.53;6.10;;;;;;;;;;5069779;28;20382;-71
2023/01/25 13:15:36;;;;;;;18.00;7.30;;;;;;;;;;5056724;28;20446;-69
2023/01/25 13:18:22;;;;;;;15.83;6.60;;;;;;;;;;5106545;28;20081;-70
2023/01/25 13:20:49;;;;;;;13.63;6.60;;;;;;;;;;5053864;28;20059;-70
2023/01/25 13:23:32;;;;;;;19.10;7.70;;;;;;;;;;5086511;28;20088;-74
2023/01/25 13:26:16;;;;;;;18.77;7.70;;;;;;;;;;5057313;28;20135;-68
2023/01/25 13:28:44;;;;;;;16.10;7.20;;;;;;;;;;5087686;28;20501;-70
2023/01/25 13:31:29;;;;;;;16.73;7.00;;;;;;;;;;5053478;28;20626;-72
2023/01/25 13:33:56;;;;;;;17.23;7.53;;;;;;;;;;5084866;28;20090;-72
2023/01/25 13:36:40;;;;;;;12.23;6.27;;;;;;;;;;5073033;28;20031;-72
2023/01/25 13:39:25;;;;;;;17.57;8.27;;;;;;;;;;5088542;28;20381;-73
2023/01/25 13:42:15;;;;;;;15.80;7.47;;;;;;;;;;5070453;28;20039;-71
2023/01/25 13:44:45;;;;;;;15.33;7.13;;;;;;;;;;5073338;28;20509;-71
2023/01/25 13:47:22;;;;;;;18.00;7.90;;;;;;;;;;5094967;28;20050;-76
2023/01/25 13:49:54;;;;;;;18.23;7.87;;;;;;;;;;5077892;28;20086;-71
2023/01/25 13:52:21;;;;;;;18.57;8.20;;;;;;;;;;5077739;28;20040;-71
2023/01/25 13:54:49;;;;;;;17.50;8.23;;;;;;;;;;5094278;28;20036;-72
2023/01/25 13:57:20;;;;;;;18.53;8.63;;;;;;;;;;5077885;28;20036;-71
2023/01/25 13:59:46;;;;;;;19.17;8.00;;;;;;;;;;5112031;28;20039;-71
2023/01/25 14:02:15;;;;;;;15.67;7.90;;;;;;;;;;5094938;28;20412;-71
2023/01/25 14:04:43;;;;;;;17.20;8.73;;;;;;;;;;5098699;27;20050;-72
2023/01/25 14:07:12;;;;;;;18.77;8.80;;;;;;;;;;5099241;27;20047;-71
2023/01/25 14:09:40;;;;;;;16.60;8.90;;;;;;;;;;5117136;27;20031;-70
2023/01/25 14:12:09;;;;;;;18.50;8.30;;;;;;;;;;5100529;27;20023;-71
2023/01/25 14:14:35;;;;;;;20.20;9.40;;;;;;;;;;5114164;27;20031;-70
2023/01/25 14:17:08;;;;;;;15.00;7.87;;;;;;;;;;5097460;27;20024;-70
2023/01/25 14:19:35;;;;;;;12.40;6.93;;;;;;;;;;5110929;27;20024;-69
2023/01/25 14:22:09;;;;;;;16.83;8.67;;;;;;;;;;5100156;27;20420;-71
2023/01/25 14:24:35;;;;;;;14.87;7.70;;;;;;;;;;5104855;27;20027;-72
2023/01/25 14:27:02;;;;;;;16.97;9.57;;;;;;;;;;5099486;27;20049;-71
2023/01/25 14:29:28;;;;;;;17.73;8.73;;;;;;;;;;5108157;27;20031;-73
2023/01/25 14:31:54;;;;;;;16.10;8.17;;;;;;;;;;5099365;27;20035;-72
2023/01/25 14:34:19;;;;;;;16.07;8.37;;;;;;;;;;5098830;27;20043;-72
2023/01/25 14:36:46;;;;;;;20.43;9.17;;;;;;;;;;5099197;27;20023;-72
2023/01/25 14:39:15;;;;;;;21.10;9.30;;;;;;;;;;5116340;27;20071;-71
2023/01/25 14:41:42;;;;;;;17.60;9.40;;;;;;;;;;5099445;27;20027;-71
2023/01/25 14:44:13;;;;;;;23.47;11.33;;;;;;;;;;5097896;27;20035;-72
2023/01/25 14:46:41;;;;;;;18.43;10.10;;;;;;;;;;5113935;27;20039;-71
2023/01/25 14:49:25;;;;;;;21.57;10.20;;;;;;;;;;5099249;27;20138;-73
2023/01/25 14:51:50;;;;;;;25.60;10.20;;;;;;;;;;5115886;27;20039;-71